sensor_id;sensor_type;location;lat;lon;timestamp;temperature;humidity
29295;DHT22;16305;48.566;8.846;2023-03-01T00:00:38;-2.00;99.90
29295;DHT22;16305;48.566;8.846;2023-03-01T00:03:04;-1.90;99.90
29295;DHT22;16305;48.566;8.846;2023-03-01T00:05:29;-1.90;99.90
29295;DHT22;16305;48.566;8.846;2023-03-01T00:07:55;-1.90;99.90
29295;DHT22;16305;48.566;8.846;2023-03-01T00:10:20;-1.90;99.90
29295;DHT22;16305;48.566;8.846;2023-03-01T00:12:46;-1.90;99.90
29295;DHT22;16305;48.566;8.846;2023-03-01T00:15:11;-2.00;99.90
29295;DHT22;16305;48.566;8.846;2023-03-01T00:17:37;-2.00;99.90
29295;DHT22;16305;48.566;8.846;2023-03-01T00:20:03;-2.00;99.90
29295;DHT22;16305;48.566;8.846;2023-03-01T00:22:33;-2.00;99.90
29295;DHT22;16305;48.566;8.846;2023-03-01T00:24:58;-2.00;99.90
29295;DHT22;16305;48.566;8.846;2023-03-01T00:27:24;-2.10;99.90
29295;DHT22;16305;48.566;8.846;2023-03-01T00:29:49;-2.10;99.90
29295;DHT22;16305;48.566;8.846;2023-03-01T00:32:15;-2.20;99.90
29295;DHT22;16305;48.566;8.846;2023-03-01T00:34:40;-2.20;99.90
29295;DHT22;16305;48.566;8.846;2023-03-01T00:37:06;-2.10;99.90
29295;DHT22;16305;48.566;8.846;2023-03-01T00:39:32;-2.10;99.90
29295;DHT22;16305;48.566;8.846;2023-03-01T00:41:58;-2.10;99.90
29295;DHT22;16305;48.566;8.846;2023-03-01T00:44:24;-2.10;99.90
29295;DHT22;16305;48.566;8.846;2023-03-01T00:46:49;-2.10;99.90
29295;DHT22;16305;48.566;8.846;2023-03-01T00:49:15;-2.20;99.90
29295;DHT22;16305;48.566;8.846;2023-03-01T00:51:40;-2.20;99.90
29295;DHT22;16305;48.566;8.846;2023-03-01T00:54:08;-2.20;99.90
29295;DHT22;16305;48.566;8.846;2023-03-01T00:56:34;-2.10;99.90
29295;DHT22;16305;48.566;8.846;2023-03-01T00:59:00;-2.20;99.90
29295;DHT22;16305;48.566;8.846;2023-03-01T01:01:28;-2.20;99.90
29295;DHT22;16305;48.566;8.846;2023-03-01T01:03:59;-2.20;99.90
29295;DHT22;16305;48.566;8.846;2023-03-01T01:06:28;-2.30;99.90
29295;DHT22;16305;48.566;8.846;2023-03-01T01:08:55;-2.40;99.90
29295;DHT22;16305;48.566;8.846;2023-03-01T01:11:22;-2.40;99.90
29295;DHT22;16305;48.566;8.846;2023-03-01T01:13:49;-2.30;99.90
29295;DHT22;16305;48.566;8.846;2023-03-01T01:16:16;-2.40;99.90
29295;DHT22;16305;48.566;8.846;2023-03-01T01:18:42;-2.30;99.90
29295;DHT22;16305;48.566;8.846;2023-03-01T01:21:10;-2.30;99.90
29295;DHT22;16305;48.566;8.846;2023-03-01T01:23:37;-2.40;99.90
29295;DHT22;16305;48.566;8.846;2023-03-01T01:26:11;-2.40;99.90
29295;DHT22;16305;48.566;8.846;2023-03-01T01:28:37;-2.40;99.90
29295;DHT22;16305;48.566;8.846;2023-03-01T01:31:04;-2.40;99.90
29295;DHT22;16305;48.566;8.846;2023-03-01T01:33:30;-2.50;99.90
29295;DHT22;16305;48.566;8.846;2023-03-01T01:35:56;-2.50;99.90
29295;DHT22;16305;48.566;8.846;2023-03-01T01:38:22;-2.50;99.90
29295;DHT22;16305;48.566;8.846;2023-03-01T01:40:49;-2.60;99.90
29295;DHT22;16305;48.566;8.846;2023-03-01T01:43:22;-2.60;99.90
29295;DHT22;16305;48.566;8.846;2023-03-01T01:45:48;-2.50;99.90
29295;DHT22;16305;48.566;8.846;2023-03-01T01:48:18;-2.50;99.90
29295;DHT22;16305;48.566;8.846;2023-03-01T01:50:50;-2.50;99.90
29295;DHT22;16305;48.566;8.846;2023-03-01T01:53:19;-2.50;99.90
29295;DHT22;16305;48.566;8.846;2023-03-01T01:55:49;-2.50;99.90
29295;DHT22;16305;48.566;8.846;2023-03-01T01:58:19;-2.50;99.90
29295;DHT22;16305;48.566;8.846;2023-03-01T02:00:46;-2.50;99.90
29295;DHT22;16305;48.566;8.846;2023-03-01T02:03:15;-2.60;99.90
29295;DHT22;16305;48.566;8.846;2023-03-01T02:05:57;-2.60;99.90
29295;DHT22;16305;48.566;8.846;2023-03-01T02:08:26;-2.60;99.90
29295;DHT22;16305;48.566;8.846;2023-03-01T02:10:53;-2.70;99.90
29295;DHT22;16305;48.566;8.846;2023-03-01T02:13:19;-2.70;99.90
29295;DHT22;16305;48.566;8.846;2023-03-01T02:15:45;-2.70;99.90
29295;DHT22;16305;48.566;8.846;2023-03-01T02:18:13;-2.70;99.90
29295;DHT22;16305;48.566;8.846;2023-03-01T02:21:05;-2.70;99.90
29295;DHT22;16305;48.566;8.846;2023-03-01T02:23:34;-2.70;99.90
29295;DHT22;16305;48.566;8.846;2023-03-01T02:26:06;-2.70;99.90
29295;DHT22;16305;48.566;8.846;2023-03-01T02:28:38;-2.70;99.90
29295;DHT22;16305;48.566;8.846;2023-03-01T02:31:07;-2.70;99.90
29295;DHT22;16305;48.566;8.846;2023-03-01T02:33:53;-2.70;99.90
29295;DHT22;16305;48.566;8.846;2023-03-01T02:36:28;-2.70;99.90
29295;DHT22;16305;48.566;8.846;2023-03-01T02:38:58;-2.60;99.90
29295;DHT22;16305;48.566;8.846;2023-03-01T02:41:25;-2.50;99.90
29295;DHT22;16305;48.566;8.846;2023-03-01T02:43:51;-2.50;99.90
29295;DHT22;16305;48.566;8.846;2023-03-01T02:46:22;-2.60;99.90
29295;DHT22;16305;48.566;8.846;2023-03-01T02:48:56;-2.60;99.90
29295;DHT22;16305;48.566;8.846;2023-03-01T02:51:50;-2.50;99.90
29295;DHT22;16305;48.566;8.846;2023-03-01T02:54:29;-2.50;99.90
29295;DHT22;16305;48.566;8.846;2023-03-01T02:56:57;-2.50;99.90
29295;DHT22;16305;48.566;8.846;2023-03-01T02:59:28;-2.40;99.90
29295;DHT22;16305;48.566;8.846;2023-03-01T03:01:54;-2.40;99.90
29295;DHT22;16305;48.566;8.846;2023-03-01T03:04:20;-2.40;99.90
29295;DHT22;16305;48.566;8.846;2023-03-01T03:06:47;-2.30;99.90
29295;DHT22;16305;48.566;8.846;2023-03-01T03:09:15;-2.40;99.90
29295;DHT22;16305;48.566;8.846;2023-03-01T03:11:41;-2.30;99.90
29295;DHT22;16305;48.566;8.846;2023-03-01T03:14:12;-2.30;99.90
29295;DHT22;16305;48.566;8.846;2023-03-01T03:16:49;-2.40;99.90
29295;DHT22;16305;48.566;8.846;2023-03-01T03:19:16;-2.30;99.90
29295;DHT22;16305;48.566;8.846;2023-03-01T03:21:42;-2.30;99.90
29295;DHT22;16305;48.566;8.846;2023-03-01T03:24:07;-2.30;99.90
29295;DHT22;16305;48.566;8.846;2023-03-01T03:26:33;-2.30;99.90
29295;DHT22;16305;48.566;8.846;2023-03-01T03:28:59;-2.30;99.90
29295;DHT22;16305;48.566;8.846;2023-03-01T03:31:24;-2.30;99.90
29295;DHT22;16305;48.566;8.846;2023-03-01T03:33:50;-2.30;99.90
29295;DHT22;16305;48.566;8.846;2023-03-01T03:36:17;-2.30;99.90
29295;DHT22;16305;48.566;8.846;2023-03-01T03:38:44;-2.30;99.90
29295;DHT22;16305;48.566;8.846;2023-03-01T03:41:11;-2.20;99.90
29295;DHT22;16305;48.566;8.846;2023-03-01T03:43:38;-2.10;99.90
29295;DHT22;16305;48.566;8.846;2023-03-01T03:46:05;-2.00;99.90
29295;DHT22;16305;48.566;8.846;2023-03-01T03:48:33;-2.00;99.90
29295;DHT22;16305;48.566;8.846;2023-03-01T03:50:58;-1.90;99.90
29295;DHT22;16305;48.566;8.846;2023-03-01T03:53:26;-1.80;99.90
29295;DHT22;16305;48.566;8.846;2023-03-01T03:55:52;-1.70;99.90
29295;DHT22;16305;48.566;8.846;2023-03-01T03:58:19;-1.70;99.90
29295;DHT22;16305;48.566;8.846;2023-03-01T04:00:48;-1.60;99.90
29295;DHT22;16305;48.566;8.846;2023-03-01T04:03:15;-1.70;99.90
29295;DHT22;16305;48.566;8.846;2023-03-01T04:05:41;-1.80;99.90
29295;DHT22;16305;48.566;8.846;2023-03-01T04:08:08;-2.00;99.90
29295;DHT22;16305;48.566;8.846;2023-03-01T04:10:39;-2.00;99.90
29295;DHT22;16305;48.566;8.846;2023-03-01T04:13:11;-2.00;99.90
29295;DHT22;16305;48.566;8.846;2023-03-01T04:15:38;-2.00;99.90
29295;DHT22;16305;48.566;8.846;2023-03-01T04:18:04;-2.00;99.90
29295;DHT22;16305;48.566;8.846;2023-03-01T04:20:32;-2.00;99.90
29295;DHT22;16305;48.566;8.846;2023-03-01T04:23:03;-2.00;99.90
29295;DHT22;16305;48.566;8.846;2023-03-01T04:25:39;-2.00;99.90
29295;DHT22;16305;48.566;8.846;2023-03-01T04:28:05;-2.10;99.90
29295;DHT22;16305;48.566;8.846;2023-03-01T04:30:31;-2.10;99.90
29295;DHT22;16305;48.566;8.846;2023-03-01T04:33:04;-2.00;99.90
29295;DHT22;16305;48.566;8.846;2023-03-01T04:35:31;-2.00;99.90
29295;DHT22;16305;48.566;8.846;2023-03-01T04:37:57;-2.00;99.90
29295;DHT22;16305;48.566;8.846;2023-03-01T04:40:22;-2.00;99.90
29295;DHT22;16305;48.566;8.846;2023-03-01T04:42:48;-1.90;99.90
29295;DHT22;16305;48.566;8.846;2023-03-01T04:45:14;-2.00;99.90
29295;DHT22;16305;48.566;8.846;2023-03-01T04:47:41;-1.90;99.90
29295;DHT22;16305;48.566;8.846;2023-03-01T04:50:08;-1.90;99.90
29295;DHT22;16305;48.566;8.846;2023-03-01T04:52:35;-2.00;99.90
29295;DHT22;16305;48.566;8.846;2023-03-01T04:55:01;-2.00;99.90
29295;DHT22;16305;48.566;8.846;2023-03-01T04:57:26;-1.90;99.90
29295;DHT22;16305;48.566;8.846;2023-03-01T04:59:52;-1.90;99.90
29295;DHT22;16305;48.566;8.846;2023-03-01T05:02:17;-1.90;99.90
29295;DHT22;16305;48.566;8.846;2023-03-01T05:04:43;-1.90;99.90
29295;DHT22;16305;48.566;8.846;2023-03-01T05:07:09;-1.80;99.90
29295;DHT22;16305;48.566;8.846;2023-03-01T05:09:34;-1.80;99.90
29295;DHT22;16305;48.566;8.846;2023-03-01T05:12:00;-1.80;99.90
29295;DHT22;16305;48.566;8.846;2023-03-01T05:14:25;-1.80;99.90
29295;DHT22;16305;48.566;8.846;2023-03-01T05:16:51;-1.70;99.90
29295;DHT22;16305;48.566;8.846;2023-03-01T05:19:16;-1.70;99.90
29295;DHT22;16305;48.566;8.846;2023-03-01T05:21:42;-1.70;99.90
29295;DHT22;16305;48.566;8.846;2023-03-01T05:24:28;-1.60;99.90
29295;DHT22;16305;48.566;8.846;2023-03-01T05:26:53;-1.60;99.90
29295;DHT22;16305;48.566;8.846;2023-03-01T05:29:20;-1.60;99.90
29295;DHT22;16305;48.566;8.846;2023-03-01T05:31:51;-1.50;99.90
29295;DHT22;16305;48.566;8.846;2023-03-01T05:34:17;-1.50;99.90
29295;DHT22;16305;48.566;8.846;2023-03-01T05:36:43;-1.50;99.90
29295;DHT22;16305;48.566;8.846;2023-03-01T05:39:08;-1.60;99.90
29295;DHT22;16305;48.566;8.846;2023-03-01T05:41:34;-1.50;99.90
29295;DHT22;16305;48.566;8.846;2023-03-01T05:43:59;-1.50;99.90
29295;DHT22;16305;48.566;8.846;2023-03-01T05:46:25;-1.50;99.90
29295;DHT22;16305;48.566;8.846;2023-03-01T05:48:50;-1.50;99.90
29295;DHT22;16305;48.566;8.846;2023-03-01T05:51:16;-1.50;99.90
29295;DHT22;16305;48.566;8.846;2023-03-01T05:53:42;-1.50;99.90
29295;DHT22;16305;48.566;8.846;2023-03-01T05:56:07;-1.50;99.90
29295;DHT22;16305;48.566;8.846;2023-03-01T05:58:33;-1.50;99.90
29295;DHT22;16305;48.566;8.846;2023-03-01T06:00:58;-1.50;99.90
29295;DHT22;16305;48.566;8.846;2023-03-01T06:03:24;-1.50;99.90
29295;DHT22;16305;48.566;8.846;2023-03-01T06:05:49;-1.50;99.90
29295;DHT22;16305;48.566;8.846;2023-03-01T06:08:15;-1.60;99.90
29295;DHT22;16305;48.566;8.846;2023-03-01T06:10:40;-1.60;99.90
29295;DHT22;16305;48.566;8.846;2023-03-01T06:13:06;-1.50;99.90
29295;DHT22;16305;48.566;8.846;2023-03-01T06:15:31;-1.40;99.90
29295;DHT22;16305;48.566;8.846;2023-03-01T06:17:57;-1.40;99.90
29295;DHT22;16305;48.566;8.846;2023-03-01T06:20:24;-1.40;99.90
29295;DHT22;16305;48.566;8.846;2023-03-01T06:22:50;-1.40;99.90
29295;DHT22;16305;48.566;8.846;2023-03-01T06:25:18;-1.40;99.90
29295;DHT22;16305;48.566;8.846;2023-03-01T06:27:44;-1.40;99.90
29295;DHT22;16305;48.566;8.846;2023-03-01T06:30:12;-1.30;99.90
29295;DHT22;16305;48.566;8.846;2023-03-01T06:32:39;-1.30;99.90
29295;DHT22;16305;48.566;8.846;2023-03-01T06:35:07;-1.30;99.90
29295;DHT22;16305;48.566;8.846;2023-03-01T06:37:33;-1.30;99.90
29295;DHT22;16305;48.566;8.846;2023-03-01T06:39:58;-1.30;99.90
29295;DHT22;16305;48.566;8.846;2023-03-01T06:42:24;-1.30;99.90
29295;DHT22;16305;48.566;8.846;2023-03-01T06:44:49;-1.20;99.90
29295;DHT22;16305;48.566;8.846;2023-03-01T06:47:15;-1.10;99.90
29295;DHT22;16305;48.566;8.846;2023-03-01T06:49:41;-1.00;99.90
29295;DHT22;16305;48.566;8.846;2023-03-01T06:52:06;-1.00;99.90
29295;DHT22;16305;48.566;8.846;2023-03-01T06:54:32;-1.10;99.90
29295;DHT22;16305;48.566;8.846;2023-03-01T06:56:57;-1.10;99.90
29295;DHT22;16305;48.566;8.846;2023-03-01T06:59:23;-1.20;99.90
29295;DHT22;16305;48.566;8.846;2023-03-01T07:01:48;-1.10;99.90
29295;DHT22;16305;48.566;8.846;2023-03-01T07:04:14;-1.10;99.90
29295;DHT22;16305;48.566;8.846;2023-03-01T07:06:40;-1.00;99.90
29295;DHT22;16305;48.566;8.846;2023-03-01T07:09:05;-1.00;99.90
29295;DHT22;16305;48.566;8.846;2023-03-01T07:11:31;-1.00;99.90
29295;DHT22;16305;48.566;8.846;2023-03-01T07:13:56;-0.90;99.90
29295;DHT22;16305;48.566;8.846;2023-03-01T07:16:23;-1.00;99.90
29295;DHT22;16305;48.566;8.846;2023-03-01T07:18:49;-1.00;99.90
29295;DHT22;16305;48.566;8.846;2023-03-01T07:21:15;-1.00;99.90
29295;DHT22;16305;48.566;8.846;2023-03-01T07:23:41;-1.00;99.90
29295;DHT22;16305;48.566;8.846;2023-03-01T07:26:07;-1.00;99.90
29295;DHT22;16305;48.566;8.846;2023-03-01T07:28:33;-1.00;99.90
29295;DHT22;16305;48.566;8.846;2023-03-01T07:31:04;-0.90;99.90
29295;DHT22;16305;48.566;8.846;2023-03-01T07:33:30;-0.90;99.90
29295;DHT22;16305;48.566;8.846;2023-03-01T07:36:00;-0.90;99.90
29295;DHT22;16305;48.566;8.846;2023-03-01T07:38:27;-0.80;99.90
29295;DHT22;16305;48.566;8.846;2023-03-01T07:40:54;-0.80;99.90
29295;DHT22;16305;48.566;8.846;2023-03-01T07:43:22;-0.80;99.90
29295;DHT22;16305;48.566;8.846;2023-03-01T07:45:48;-0.80;99.90
29295;DHT22;16305;48.566;8.846;2023-03-01T07:48:13;-0.80;99.90
29295;DHT22;16305;48.566;8.846;2023-03-01T07:50:39;-0.80;99.90
29295;DHT22;16305;48.566;8.846;2023-03-01T07:53:04;-0.70;99.90
29295;DHT22;16305;48.566;8.846;2023-03-01T07:55:30;-0.70;99.90
29295;DHT22;16305;48.566;8.846;2023-03-01T07:57:55;-0.60;99.90
29295;DHT22;16305;48.566;8.846;2023-03-01T08:00:21;-0.60;99.90
29295;DHT22;16305;48.566;8.846;2023-03-01T08:02:47;-0.50;99.90
29295;DHT22;16305;48.566;8.846;2023-03-01T08:05:12;-0.50;99.90
29295;DHT22;16305;48.566;8.846;2023-03-01T08:07:38;-0.40;99.90
29295;DHT22;16305;48.566;8.846;2023-03-01T08:10:04;-0.50;99.90
29295;DHT22;16305;48.566;8.846;2023-03-01T08:12:30;-0.40;99.90
29295;DHT22;16305;48.566;8.846;2023-03-01T08:14:55;-0.30;99.90
29295;DHT22;16305;48.566;8.846;2023-03-01T08:17:22;-0.30;99.90
29295;DHT22;16305;48.566;8.846;2023-03-01T08:19:49;-0.30;99.90
29295;DHT22;16305;48.566;8.846;2023-03-01T08:22:14;-0.30;99.90
29295;DHT22;16305;48.566;8.846;2023-03-01T08:24:40;-0.20;99.90
29295;DHT22;16305;48.566;8.846;2023-03-01T08:27:05;-0.10;99.90
29295;DHT22;16305;48.566;8.846;2023-03-01T08:29:31;0.00;99.90
29295;DHT22;16305;48.566;8.846;2023-03-01T08:31:57;0.00;99.90
29295;DHT22;16305;48.566;8.846;2023-03-01T08:34:23;0.10;99.90
29295;DHT22;16305;48.566;8.846;2023-03-01T08:36:48;0.10;99.90
29295;DHT22;16305;48.566;8.846;2023-03-01T08:39:16;0.20;99.90
29295;DHT22;16305;48.566;8.846;2023-03-01T08:41:43;0.20;99.90
29295;DHT22;16305;48.566;8.846;2023-03-01T08:44:10;0.20;99.90
29295;DHT22;16305;48.566;8.846;2023-03-01T08:46:39;0.30;99.90
29295;DHT22;16305;48.566;8.846;2023-03-01T08:49:07;0.40;99.90
29295;DHT22;16305;48.566;8.846;2023-03-01T08:51:35;0.50;99.90
29295;DHT22;16305;48.566;8.846;2023-03-01T08:54:07;0.70;99.90
29295;DHT22;16305;48.566;8.846;2023-03-01T08:56:33;0.80;99.90
29295;DHT22;16305;48.566;8.846;2023-03-01T08:58:59;0.90;99.90
29295;DHT22;16305;48.566;8.846;2023-03-01T09:01:25;1.10;99.90
29295;DHT22;16305;48.566;8.846;2023-03-01T09:03:50;1.10;99.90
29295;DHT22;16305;48.566;8.846;2023-03-01T09:06:16;1.20;99.90
29295;DHT22;16305;48.566;8.846;2023-03-01T09:08:44;1.30;99.90
29295;DHT22;16305;48.566;8.846;2023-03-01T09:11:13;1.50;99.90
29295;DHT22;16305;48.566;8.846;2023-03-01T09:13:39;1.50;99.90
29295;DHT22;16305;48.566;8.846;2023-03-01T09:16:06;1.50;99.90
29295;DHT22;16305;48.566;8.846;2023-03-01T09:18:33;1.60;99.90
29295;DHT22;16305;48.566;8.846;2023-03-01T09:21:14;1.70;99.90
29295;DHT22;16305;48.566;8.846;2023-03-01T09:23:42;1.90;99.90
29295;DHT22;16305;48.566;8.846;2023-03-01T09:26:13;2.00;99.90
29295;DHT22;16305;48.566;8.846;2023-03-01T09:28:40;1.90;99.90
29295;DHT22;16305;48.566;8.846;2023-03-01T09:31:13;2.00;99.90
29295;DHT22;16305;48.566;8.846;2023-03-01T09:33:40;1.90;99.90
29295;DHT22;16305;48.566;8.846;2023-03-01T09:36:17;2.10;99.90
29295;DHT22;16305;48.566;8.846;2023-03-01T09:38:44;2.10;99.90
29295;DHT22;16305;48.566;8.846;2023-03-01T09:46:45;2.30;99.90
29295;DHT22;16305;48.566;8.846;2023-03-01T09:49:15;2.30;99.90
29295;DHT22;16305;48.566;8.846;2023-03-01T09:51:46;2.30;99.90
29295;DHT22;16305;48.566;8.846;2023-03-01T09:54:14;2.40;99.90
29295;DHT22;16305;48.566;8.846;2023-03-01T09:56:43;2.40;99.90
29295;DHT22;16305;48.566;8.846;2023-03-01T10:04:48;2.70;99.90
29295;DHT22;16305;48.566;8.846;2023-03-01T10:07:22;2.70;99.90
29295;DHT22;16305;48.566;8.846;2023-03-01T10:09:52;2.80;99.90
29295;DHT22;16305;48.566;8.846;2023-03-01T10:12:27;2.90;99.90
29295;DHT22;16305;48.566;8.846;2023-03-01T10:15:34;2.70;99.90
29295;DHT22;16305;48.566;8.846;2023-03-01T10:18:04;2.80;99.90
29295;DHT22;16305;48.566;8.846;2023-03-01T10:21:01;2.80;99.90
29295;DHT22;16305;48.566;8.846;2023-03-01T10:23:31;2.90;99.90
29295;DHT22;16305;48.566;8.846;2023-03-01T10:26:28;2.90;99.90
29295;DHT22;16305;48.566;8.846;2023-03-01T10:29:09;3.00;99.90
29295;DHT22;16305;48.566;8.846;2023-03-01T10:31:46;3.10;99.90
29295;DHT22;16305;48.566;8.846;2023-03-01T10:34:15;3.20;99.90
29295;DHT22;16305;48.566;8.846;2023-03-01T10:36:44;3.40;99.90
29295;DHT22;16305;48.566;8.846;2023-03-01T10:39:20;3.40;99.90
29295;DHT22;16305;48.566;8.846;2023-03-01T10:42:19;3.50;99.90
29295;DHT22;16305;48.566;8.846;2023-03-01T10:44:49;3.50;99.90
29295;DHT22;16305;48.566;8.846;2023-03-01T10:47:18;3.40;99.90
29295;DHT22;16305;48.566;8.846;2023-03-01T10:52:20;3.70;99.90
29295;DHT22;16305;48.566;8.846;2023-03-01T10:54:58;3.80;99.90
29295;DHT22;16305;48.566;8.846;2023-03-01T10:57:29;3.80;99.90
29295;DHT22;16305;48.566;8.846;2023-03-01T11:02:47;3.40;99.90
29295;DHT22;16305;48.566;8.846;2023-03-01T11:07:54;3.70;99.90
29295;DHT22;16305;48.566;8.846;2023-03-01T11:10:34;3.60;99.90
29295;DHT22;16305;48.566;8.846;2023-03-01T11:13:09;3.80;99.90
29295;DHT22;16305;48.566;8.846;2023-03-01T11:15:39;3.90;99.90
29295;DHT22;16305;48.566;8.846;2023-03-01T11:18:05;4.20;99.90
29295;DHT22;16305;48.566;8.846;2023-03-01T11:20:43;4.30;99.90
29295;DHT22;16305;48.566;8.846;2023-03-01T11:23:13;4.20;99.90
29295;DHT22;16305;48.566;8.846;2023-03-01T11:25:49;4.10;99.90
29295;DHT22;16305;48.566;8.846;2023-03-01T11:28:18;4.30;99.90
29295;DHT22;16305;48.566;8.846;2023-03-01T11:31:06;4.50;99.90
29295;DHT22;16305;48.566;8.846;2023-03-01T11:36:41;4.50;99.90
29295;DHT22;16305;48.566;8.846;2023-03-01T11:39:17;4.60;99.90
29295;DHT22;16305;48.566;8.846;2023-03-01T11:41:49;4.70;99.90
29295;DHT22;16305;48.566;8.846;2023-03-01T11:44:24;4.80;99.90
29295;DHT22;16305;48.566;8.846;2023-03-01T11:52:25;5.10;99.90
29295;DHT22;16305;48.566;8.846;2023-03-01T11:57:56;5.60;99.90
29295;DHT22;16305;48.566;8.846;2023-03-01T12:00:33;6.50;99.90
29295;DHT22;16305;48.566;8.846;2023-03-01T12:03:20;7.40;99.90
29295;DHT22;16305;48.566;8.846;2023-03-01T12:08:41;8.80;99.90
29295;DHT22;16305;48.566;8.846;2023-03-01T12:16:59;9.90;99.90
29295;DHT22;16305;48.566;8.846;2023-03-01T12:25:25;9.40;99.90
29295;DHT22;16305;48.566;8.846;2023-03-01T12:28:04;9.90;99.90
29295;DHT22;16305;48.566;8.846;2023-03-01T12:33:43;10.00;99.90
29295;DHT22;16305;48.566;8.846;2023-03-01T12:36:20;9.50;99.90
29295;DHT22;16305;48.566;8.846;2023-03-01T12:38:59;10.40;99.90
29295;DHT22;16305;48.566;8.846;2023-03-01T12:44:47;12.20;99.90
29295;DHT22;16305;48.566;8.846;2023-03-01T12:52:51;10.60;99.90
29295;DHT22;16305;48.566;8.846;2023-03-01T13:01:14;11.20;99.90
29295;DHT22;16305;48.566;8.846;2023-03-01T13:06:38;10.80;99.90
29295;DHT22;16305;48.566;8.846;2023-03-01T13:09:35;11.00;99.90
29295;DHT22;16305;48.566;8.846;2023-03-01T13:12:03;11.00;99.90
29295;DHT22;16305;48.566;8.846;2023-03-01T13:16:57;9.50;99.90
29295;DHT22;16305;48.566;8.846;2023-03-01T13:19:25;10.30;99.90
29295;DHT22;16305;48.566;8.846;2023-03-01T13:21:53;11.00;99.90
29295;DHT22;16305;48.566;8.846;2023-03-01T13:24:25;12.00;99.90
29295;DHT22;16305;48.566;8.846;2023-03-01T13:29:45;10.70;99.90
29295;DHT22;16305;48.566;8.846;2023-03-01T13:32:23;11.40;99.90
29295;DHT22;16305;48.566;8.846;2023-03-01T13:37:40;13.10;99.90
29295;DHT22;16305;48.566;8.846;2023-03-01T13:42:49;10.50;99.90
29295;DHT22;16305;48.566;8.846;2023-03-01T13:45:22;10.90;99.90
29295;DHT22;16305;48.566;8.846;2023-03-01T13:47:53;11.30;99.90
29295;DHT22;16305;48.566;8.846;2023-03-01T13:50:23;11.60;99.90
29295;DHT22;16305;48.566;8.846;2023-03-01T13:52:59;11.80;99.90
29295;DHT22;16305;48.566;8.846;2023-03-01T13:55:52;11.20;99.90
29295;DHT22;16305;48.566;8.846;2023-03-01T13:58:27;11.10;99.90
29295;DHT22;16305;48.566;8.846;2023-03-01T14:01:02;11.70;99.90
29295;DHT22;16305;48.566;8.846;2023-03-01T14:03:30;11.90;99.90
29295;DHT22;16305;48.566;8.846;2023-03-01T14:06:06;11.70;99.90
29295;DHT22;16305;48.566;8.846;2023-03-01T14:08:32;11.60;99.90
29295;DHT22;16305;48.566;8.846;2023-03-01T14:16:57;11.00;99.90
29295;DHT22;16305;48.566;8.846;2023-03-01T14:19:29;10.90;99.90
29295;DHT22;16305;48.566;8.846;2023-03-01T14:24:31;9.90;99.90
29295;DHT22;16305;48.566;8.846;2023-03-01T14:27:01;10.60;99.90
29295;DHT22;16305;48.566;8.846;2023-03-01T14:29:38;11.00;99.90
29295;DHT22;16305;48.566;8.846;2023-03-01T14:32:27;11.30;99.90
29295;DHT22;16305;48.566;8.846;2023-03-01T14:34:53;11.40;99.90
29295;DHT22;16305;48.566;8.846;2023-03-01T14:37:39;10.90;99.90
29295;DHT22;16305;48.566;8.846;2023-03-01T14:40:18;10.50;99.90
29295;DHT22;16305;48.566;8.846;2023-03-01T14:42:46;10.80;99.90
29295;DHT22;16305;48.566;8.846;2023-03-01T14:45:12;11.10;99.90
29295;DHT22;16305;48.566;8.846;2023-03-01T14:47:39;11.30;99.90
29295;DHT22;16305;48.566;8.846;2023-03-01T14:52:48;12.60;99.90
29295;DHT22;16305;48.566;8.846;2023-03-01T14:55:27;13.20;99.90
29295;DHT22;16305;48.566;8.846;2023-03-01T14:57:54;13.20;99.90
29295;DHT22;16305;48.566;8.846;2023-03-01T15:00:30;13.00;99.90
29295;DHT22;16305;48.566;8.846;2023-03-01T15:03:04;12.50;99.90
29295;DHT22;16305;48.566;8.846;2023-03-01T15:05:35;12.30;99.90
29295;DHT22;16305;48.566;8.846;2023-03-01T15:08:03;11.80;99.90
29295;DHT22;16305;48.566;8.846;2023-03-01T15:10:32;11.90;99.90
29295;DHT22;16305;48.566;8.846;2023-03-01T15:13:21;12.40;99.90
29295;DHT22;16305;48.566;8.846;2023-03-01T15:15:49;12.90;99.90
29295;DHT22;16305;48.566;8.846;2023-03-01T15:18:16;12.30;99.90
29295;DHT22;16305;48.566;8.846;2023-03-01T15:20:43;10.80;99.90
29295;DHT22;16305;48.566;8.846;2023-03-01T15:23:25;9.40;99.90
29295;DHT22;16305;48.566;8.846;2023-03-01T15:25:52;8.00;99.90
29295;DHT22;16305;48.566;8.846;2023-03-01T15:28:37;7.60;99.90
29295;DHT22;16305;48.566;8.846;2023-03-01T15:31:24;7.60;99.90
29295;DHT22;16305;48.566;8.846;2023-03-01T15:33:50;7.40;99.90
29295;DHT22;16305;48.566;8.846;2023-03-01T15:36:48;7.50;99.90
29295;DHT22;16305;48.566;8.846;2023-03-01T15:42:09;7.00;99.90
29295;DHT22;16305;48.566;8.846;2023-03-01T15:44:37;6.90;99.90
29295;DHT22;16305;48.566;8.846;2023-03-01T15:47:25;6.80;99.90
29295;DHT22;16305;48.566;8.846;2023-03-01T15:49:53;6.80;99.90
29295;DHT22;16305;48.566;8.846;2023-03-01T15:52:45;6.40;99.90
29295;DHT22;16305;48.566;8.846;2023-03-01T15:55:19;6.20;99.90
29295;DHT22;16305;48.566;8.846;2023-03-01T15:57:46;6.00;99.90
29295;DHT22;16305;48.566;8.846;2023-03-01T16:00:13;5.90;99.90
29295;DHT22;16305;48.566;8.846;2023-03-01T16:02:40;5.70;99.90
29295;DHT22;16305;48.566;8.846;2023-03-01T16:05:14;5.70;99.90
29295;DHT22;16305;48.566;8.846;2023-03-01T16:07:41;5.60;99.90
29295;DHT22;16305;48.566;8.846;2023-03-01T16:10:07;5.60;99.90
29295;DHT22;16305;48.566;8.846;2023-03-01T16:12:32;5.60;99.90
29295;DHT22;16305;48.566;8.846;2023-03-01T16:14:58;5.40;99.90
29295;DHT22;16305;48.566;8.846;2023-03-01T16:17:23;5.30;99.90
29295;DHT22;16305;48.566;8.846;2023-03-01T16:19:49;5.20;99.90
29295;DHT22;16305;48.566;8.846;2023-03-01T16:22:14;4.90;99.90
29295;DHT22;16305;48.566;8.846;2023-03-01T16:24:40;4.90;99.90
29295;DHT22;16305;48.566;8.846;2023-03-01T16:27:06;4.80;99.90
29295;DHT22;16305;48.566;8.846;2023-03-01T16:29:32;4.70;99.90
29295;DHT22;16305;48.566;8.846;2023-03-01T16:32:00;4.60;99.90
29295;DHT22;16305;48.566;8.846;2023-03-01T16:34:26;4.60;99.90
29295;DHT22;16305;48.566;8.846;2023-03-01T16:36:51;4.60;99.90
29295;DHT22;16305;48.566;8.846;2023-03-01T16:39:17;4.50;99.90
29295;DHT22;16305;48.566;8.846;2023-03-01T16:41:43;4.50;99.90
29295;DHT22;16305;48.566;8.846;2023-03-01T16:44:08;4.50;99.90
29295;DHT22;16305;48.566;8.846;2023-03-01T16:46:34;4.40;99.90
29295;DHT22;16305;48.566;8.846;2023-03-01T16:48:59;4.30;99.90
29295;DHT22;16305;48.566;8.846;2023-03-01T16:51:25;4.30;99.90
29295;DHT22;16305;48.566;8.846;2023-03-01T16:53:51;4.30;99.90
29295;DHT22;16305;48.566;8.846;2023-03-01T16:56:17;4.10;99.90
29295;DHT22;16305;48.566;8.846;2023-03-01T16:58:43;4.00;99.90
29295;DHT22;16305;48.566;8.846;2023-03-01T17:01:15;4.00;99.90
29295;DHT22;16305;48.566;8.846;2023-03-01T17:03:41;4.00;99.90
29295;DHT22;16305;48.566;8.846;2023-03-01T17:06:10;3.90;99.90
29295;DHT22;16305;48.566;8.846;2023-03-01T17:08:36;3.80;99.90
29295;DHT22;16305;48.566;8.846;2023-03-01T17:11:14;3.70;99.90
29295;DHT22;16305;48.566;8.846;2023-03-01T17:13:39;3.50;99.90
29295;DHT22;16305;48.566;8.846;2023-03-01T17:16:07;3.60;99.90
29295;DHT22;16305;48.566;8.846;2023-03-01T17:18:34;3.50;99.90